createdAt,value
2018-10-21T00:01:03.470Z,16.00
2018-10-21T00:03:32.851Z,15.90
2018-10-21T00:06:02.327Z,15.90
2018-10-21T00:08:31.765Z,16.00
2018-10-21T00:11:01.683Z,15.90
2018-10-21T00:13:31.324Z,15.90
2018-10-21T00:16:00.747Z,15.90
2018-10-21T00:18:30.109Z,15.90
2018-10-21T00:20:59.546Z,16.00
2018-10-21T00:23:28.896Z,15.90
2018-10-21T00:25:58.290Z,15.90
2018-10-21T00:28:27.866Z,15.90
2018-10-21T00:30:57.440Z,15.90
2018-10-21T00:33:26.796Z,15.90
2018-10-21T00:35:56.258Z,15.90
2018-10-21T00:38:25.651Z,16.00
2018-10-21T00:40:55.176Z,15.90
2018-10-21T00:43:24.507Z,15.90
2018-10-21T00:45:53.881Z,15.90
2018-10-21T00:48:23.345Z,15.90
2018-10-21T00:50:52.901Z,16.00
2018-10-21T00:53:22.279Z,15.90
2018-10-21T00:55:51.612Z,15.90
2018-10-21T00:58:20.932Z,15.90
2018-10-21T01:00:50.316Z,15.90
2018-10-21T01:03:19.714Z,15.90
2018-10-21T01:05:49.153Z,15.90
2018-10-21T01:08:18.587Z,15.90
2018-10-21T01:10:48.060Z,16.00
2018-10-21T01:13:17.441Z,15.90
2018-10-21T01:15:46.862Z,16.00
2018-10-21T01:18:16.255Z,15.90
2018-10-21T01:20:45.686Z,15.90
2018-10-21T01:23:15.295Z,15.90
2018-10-21T01:25:44.806Z,15.90
2018-10-21T01:28:14.216Z,15.90
2018-10-21T01:30:43.555Z,15.90
2018-10-21T01:33:13.031Z,16.00
2018-10-21T01:35:42.515Z,15.90
2018-10-21T01:38:12.130Z,15.90
2018-10-21T01:40:44.489Z,15.90
2018-10-21T01:43:16.685Z,15.90
2018-10-21T01:45:46.219Z,15.90
2018-10-21T01:48:16.837Z,15.90
2018-10-21T01:50:46.343Z,15.90
2018-10-21T01:53:17.309Z,15.90
2018-10-21T01:55:46.769Z,15.90
2018-10-21T01:58:16.295Z,15.90
2018-10-21T02:00:46.116Z,15.90
2018-10-21T02:03:15.852Z,15.90
2018-10-21T02:05:46.256Z,15.90
2018-10-21T02:08:15.735Z,15.80
2018-10-21T02:10:45.164Z,15.80
2018-10-21T02:13:14.635Z,15.80
2018-10-21T02:15:44.080Z,15.80
2018-10-21T02:18:13.535Z,15.80
2018-10-21T02:20:42.984Z,15.80
2018-10-21T02:23:12.400Z,15.80
2018-10-21T02:25:41.926Z,15.80
2018-10-21T02:28:11.403Z,15.80
2018-10-21T02:30:40.871Z,15.80
2018-10-21T02:33:10.264Z,15.80
2018-10-21T02:35:39.644Z,15.80
2018-10-21T02:38:09.081Z,15.80
2018-10-21T02:41:55.524Z,15.80
2018-10-21T02:44:25.346Z,15.60
2018-10-21T02:46:56.149Z,15.60
2018-10-21T02:49:25.706Z,15.60
2018-10-21T02:52:00.443Z,15.60
2018-10-21T02:54:31.058Z,15.60
2018-10-21T02:57:00.568Z,15.60
2018-10-21T02:59:29.963Z,15.60
2018-10-21T03:01:59.356Z,15.60
2018-10-21T03:04:28.753Z,15.60
2018-10-21T03:06:58.209Z,15.60
2018-10-21T03:09:28.318Z,15.60
2018-10-21T03:11:57.908Z,15.60
2018-10-21T03:14:27.416Z,15.60
2018-10-21T03:16:56.925Z,15.60
2018-10-21T03:19:26.448Z,15.60
2018-10-21T03:21:55.900Z,15.60
2018-10-21T03:24:25.417Z,15.60
2018-10-21T03:26:54.900Z,15.60
2018-10-21T03:29:24.445Z,15.60
2018-10-21T03:31:53.885Z,15.60
2018-10-21T03:34:23.374Z,15.60
2018-10-21T03:36:52.836Z,15.60
2018-10-21T03:39:22.190Z,15.60
2018-10-21T03:41:51.713Z,15.50
2018-10-21T03:44:21.104Z,15.50
2018-10-21T03:46:50.441Z,15.50
2018-10-21T03:49:19.836Z,15.50
2018-10-21T03:51:49.323Z,15.50
2018-10-21T03:54:18.801Z,15.60
2018-10-21T03:56:48.232Z,15.60
2018-10-21T03:59:17.650Z,15.60
2018-10-21T04:01:47.078Z,15.60
2018-10-21T04:04:16.494Z,15.50
2018-10-21T04:06:45.920Z,15.50
2018-10-21T04:09:15.453Z,15.50
2018-10-21T04:11:44.879Z,15.50
2018-10-21T04:14:14.221Z,15.50
2018-10-21T04:16:43.550Z,15.50
2018-10-21T04:19:12.906Z,15.50
2018-10-21T04:21:42.294Z,15.50
2018-10-21T04:24:11.742Z,15.50
2018-10-21T04:26:41.233Z,15.50
2018-10-21T04:29:10.618Z,15.40
2018-10-21T04:31:39.958Z,15.40
2018-10-21T04:34:09.567Z,15.40
2018-10-21T04:36:39.056Z,15.40
2018-10-21T04:40:20.489Z,15.40
2018-10-21T04:42:50.657Z,15.20
2018-10-21T04:45:21.402Z,15.20
2018-10-21T04:47:50.882Z,15.20
2018-10-21T04:50:20.858Z,15.20
2018-10-21T04:52:51.148Z,15.20
2018-10-21T04:55:20.743Z,15.20
2018-10-21T04:57:50.130Z,15.20
2018-10-21T05:00:20.501Z,15.20
2018-10-21T05:02:49.873Z,15.20
2018-10-21T05:05:20.191Z,15.20
2018-10-21T05:07:49.512Z,15.20
2018-10-21T05:10:26.554Z,15.20
2018-10-21T05:12:56.049Z,15.20
2018-10-21T05:15:26.554Z,15.20
2018-10-21T05:17:56.696Z,15.10
2018-10-21T05:20:26.181Z,15.10
2018-10-21T05:22:55.884Z,15.10
2018-10-21T05:25:25.831Z,15.00
2018-10-21T05:27:55.231Z,15.00
2018-10-21T05:30:24.810Z,15.00
2018-10-21T05:32:55.229Z,15.00
2018-10-21T05:35:24.629Z,14.90
2018-10-21T05:37:54.224Z,14.90
2018-10-21T05:40:23.921Z,14.90
2018-10-21T05:42:53.668Z,14.80
2018-10-21T05:45:23.256Z,14.80
2018-10-21T05:47:53.601Z,14.80
2018-10-21T05:50:23.065Z,14.80
2018-10-21T05:52:52.752Z,14.70
2018-10-21T05:55:22.493Z,14.70
2018-10-21T05:57:51.996Z,14.70
2018-10-21T06:00:21.794Z,14.70
2018-10-21T06:02:51.551Z,14.70
2018-10-21T06:05:36.160Z,14.70
2018-10-21T06:08:05.920Z,14.70
2018-10-21T06:10:35.254Z,14.70
2018-10-21T06:13:05.013Z,14.70
2018-10-21T06:15:34.353Z,14.70
2018-10-21T06:18:04.904Z,14.70
2018-10-21T06:20:37.018Z,14.70
2018-10-21T06:23:06.647Z,14.70
2018-10-21T06:25:36.102Z,14.80
2018-10-21T06:28:06.569Z,14.80
2018-10-21T06:30:36.063Z,14.80
2018-10-21T06:33:05.733Z,14.80
2018-10-21T06:35:35.202Z,14.80
2018-10-21T06:38:05.017Z,14.80
2018-10-21T06:40:34.507Z,14.80
2018-10-21T06:43:03.950Z,14.70
2018-10-21T06:45:33.527Z,14.80
2018-10-21T06:48:04.035Z,14.70
2018-10-21T06:50:33.488Z,14.70
2018-10-21T06:53:03.291Z,14.70
2018-10-21T06:55:32.849Z,14.70
2018-10-21T06:58:02.209Z,14.70
2018-10-21T07:00:32.304Z,14.80
2018-10-21T07:03:02.912Z,14.80
2018-10-21T07:06:24.594Z,14.80
2018-10-21T07:08:55.310Z,14.70
2018-10-21T07:11:25.138Z,14.70
2018-10-21T07:13:54.621Z,14.70
2018-10-21T07:16:24.595Z,14.80
2018-10-21T07:18:54.414Z,14.80
2018-10-21T07:21:23.952Z,14.80
2018-10-21T07:23:53.734Z,14.90
2018-10-21T07:26:23.605Z,14.90
2018-10-21T07:28:53.148Z,14.90
2018-10-21T07:31:22.733Z,14.90
2018-10-21T07:33:52.409Z,14.90
2018-10-21T07:36:21.955Z,14.90
2018-10-21T07:38:51.300Z,14.90
2018-10-21T07:41:20.832Z,14.90
2018-10-21T07:43:50.498Z,15.00
2018-10-21T07:46:20.820Z,15.00
2018-10-21T07:48:50.492Z,15.00
2018-10-21T07:51:20.113Z,15.10
2018-10-21T07:53:49.963Z,15.20
2018-10-21T07:56:19.402Z,15.30
2018-10-21T07:58:48.919Z,15.40
2018-10-21T08:01:18.593Z,15.60
2018-10-21T08:03:48.052Z,15.70
2018-10-21T08:06:35.814Z,15.90
2018-10-21T08:09:08.411Z,16.00
2018-10-21T08:11:38.017Z,16.10
2018-10-21T08:14:07.498Z,16.20
2018-10-21T08:16:37.844Z,16.20
2018-10-21T08:19:07.425Z,16.30
2018-10-21T08:21:36.844Z,16.30
2018-10-21T08:24:06.523Z,16.40
2018-10-21T08:26:35.974Z,16.40
2018-10-21T08:29:05.689Z,16.40
2018-10-21T08:31:35.058Z,16.50
2018-10-21T08:34:04.709Z,16.50
2018-10-21T08:36:34.219Z,16.50
2018-10-21T08:39:05.598Z,16.50
2018-10-21T08:41:35.325Z,16.40
2018-10-21T08:44:04.787Z,16.50
2018-10-21T08:46:34.739Z,16.50
2018-10-21T08:49:04.237Z,16.50
2018-10-21T08:51:33.632Z,16.50
2018-10-21T08:54:03.263Z,16.50
2018-10-21T08:56:32.745Z,16.50
2018-10-21T08:59:02.249Z,16.50
2018-10-21T09:01:31.770Z,16.50
2018-10-21T09:04:01.288Z,16.50
2018-10-21T09:06:30.657Z,16.50
2018-10-21T09:09:00.037Z,16.50
2018-10-21T09:11:29.483Z,16.50
2018-10-21T09:13:58.869Z,16.50
2018-10-21T09:16:28.891Z,16.50
2018-10-21T09:18:58.443Z,16.60
2018-10-21T09:21:27.874Z,16.60
2018-10-21T09:23:57.230Z,16.60
2018-10-21T09:26:26.621Z,16.60
2018-10-21T09:28:56.083Z,16.60
2018-10-21T09:31:25.529Z,16.60
2018-10-21T09:33:54.944Z,16.60
2018-10-21T09:36:24.727Z,16.60
2018-10-21T09:38:54.298Z,16.70
2018-10-21T09:41:23.858Z,16.70
2018-10-21T09:43:54.520Z,16.70
2018-10-21T09:46:24.285Z,16.60
2018-10-21T09:48:53.753Z,16.60
2018-10-21T09:51:23.247Z,16.60
2018-10-21T09:53:52.925Z,16.70
2018-10-21T09:56:22.467Z,16.70
2018-10-21T09:58:51.992Z,16.70
2018-10-21T10:01:26.680Z,16.70
2018-10-21T10:03:56.268Z,16.70
2018-10-21T10:06:25.618Z,16.80
2018-10-21T10:08:54.945Z,16.80
2018-10-21T10:11:24.664Z,16.80
2018-10-21T10:13:53.995Z,16.90
2018-10-21T10:16:23.383Z,16.90
2018-10-21T10:18:52.853Z,16.90
2018-10-21T10:21:22.284Z,16.90
2018-10-21T10:23:51.852Z,16.90
2018-10-21T10:26:21.297Z,16.90
2018-10-21T10:28:50.747Z,16.90
2018-10-21T10:31:20.613Z,17.00
2018-10-21T10:33:50.045Z,17.00
2018-10-21T10:36:19.728Z,17.00
2018-10-21T10:38:49.479Z,17.00
2018-10-21T10:41:18.862Z,17.10
2018-10-21T10:43:48.357Z,17.10
2018-10-21T10:46:17.782Z,17.20
2018-10-21T10:48:47.200Z,17.20
2018-10-21T10:51:17.296Z,17.20
2018-10-21T10:53:47.014Z,17.20
2018-10-21T10:56:16.398Z,17.20
2018-10-21T10:58:45.944Z,17.30
2018-10-21T11:01:15.534Z,17.30
2018-10-21T11:03:44.980Z,17.30
2018-10-21T11:06:14.462Z,17.30
2018-10-21T11:08:44.053Z,17.30
2018-10-21T11:11:13.574Z,17.40
2018-10-21T11:13:43.015Z,17.40
2018-10-21T11:16:12.587Z,17.40
2018-10-21T11:18:41.997Z,17.40
2018-10-21T11:21:11.434Z,17.40
2018-10-21T11:23:40.936Z,17.40
2018-10-21T11:26:10.356Z,17.50
2018-10-21T11:28:39.828Z,17.50
2018-10-21T11:31:09.394Z,17.50
2018-10-21T11:33:38.792Z,17.50
2018-10-21T11:36:08.371Z,17.50
2018-10-21T11:38:37.708Z,17.50
2018-10-21T11:41:07.848Z,17.50
2018-10-21T11:43:37.322Z,17.50
2018-10-21T11:46:06.927Z,17.50
2018-10-21T11:48:36.243Z,17.50
2018-10-21T11:51:06.125Z,17.50
2018-10-21T11:53:35.542Z,17.50
2018-10-21T11:56:05.401Z,17.60
2018-10-21T11:58:34.862Z,17.60
2018-10-21T12:01:04.378Z,17.60
2018-10-21T12:03:34.274Z,17.60
2018-10-21T12:06:03.698Z,17.60
2018-10-21T12:08:33.225Z,17.60
2018-10-21T12:11:02.653Z,17.70
2018-10-21T12:13:32.027Z,17.70
2018-10-21T12:16:01.487Z,17.70
2018-10-21T12:18:30.826Z,17.70
2018-10-21T12:21:01.393Z,17.70
2018-10-21T12:23:31.976Z,17.70
2018-10-21T12:26:01.553Z,17.80
2018-10-21T12:28:31.161Z,17.80
2018-10-21T12:31:00.548Z,17.80
2018-10-21T12:33:32.395Z,17.80
2018-10-21T12:36:01.946Z,17.80
2018-10-21T12:38:31.429Z,17.80
2018-10-21T12:41:00.928Z,17.90
2018-10-21T12:43:30.536Z,17.90
2018-10-21T12:45:59.919Z,17.90
2018-10-21T12:48:29.426Z,17.90
2018-10-21T12:50:58.969Z,17.90
2018-10-21T12:53:28.378Z,17.90
2018-10-21T12:55:57.993Z,18.00
2018-10-21T12:58:27.403Z,18.00
2018-10-21T13:00:56.910Z,18.00
2018-10-21T13:03:26.321Z,18.00
2018-10-21T13:05:55.708Z,18.00
2018-10-21T13:08:25.217Z,18.10
2018-10-21T13:10:54.728Z,18.10
2018-10-21T13:13:24.269Z,18.10
2018-10-21T13:15:53.732Z,18.10
2018-10-21T13:18:23.228Z,18.10
2018-10-21T13:20:52.644Z,18.10
2018-10-21T13:23:22.075Z,18.10
2018-10-21T13:25:51.573Z,18.10
2018-10-21T13:28:21.184Z,18.10
2018-10-21T13:30:50.583Z,18.10
2018-10-21T13:33:20.733Z,18.10
2018-10-21T13:35:50.316Z,18.10
2018-10-21T13:38:19.776Z,18.10
2018-10-21T13:40:49.205Z,18.10
2018-10-21T13:43:18.781Z,18.10
2018-10-21T13:45:48.201Z,18.10
2018-10-21T13:48:17.600Z,18.10
2018-10-21T13:50:47.037Z,18.10
2018-10-21T13:53:16.473Z,18.10
2018-10-21T13:55:46.018Z,18.10
2018-10-21T13:58:15.459Z,18.10
2018-10-21T14:00:44.914Z,18.10
2018-10-21T14:03:14.333Z,18.10
2018-10-21T14:05:43.773Z,18.10
2018-10-21T14:08:13.868Z,18.10
2018-10-21T14:10:43.501Z,18.10
2018-10-21T14:13:13.029Z,18.10
2018-10-21T14:15:42.391Z,18.10
2018-10-21T14:18:12.453Z,18.10
2018-10-21T14:20:42.543Z,18.10
2018-10-21T14:23:12.172Z,18.10
2018-10-21T14:25:41.817Z,18.10
2018-10-21T14:28:11.348Z,18.00
2018-10-21T14:30:40.826Z,18.00
2018-10-21T14:33:10.281Z,18.00
2018-10-21T14:35:39.686Z,18.00
2018-10-21T14:38:09.268Z,18.00
2018-10-21T14:40:38.656Z,18.00
2018-10-21T14:43:08.129Z,18.00
2018-10-21T14:45:37.682Z,18.00
2018-10-21T14:48:07.164Z,18.00
2018-10-21T14:50:36.508Z,17.90
2018-10-21T14:53:06.029Z,17.90
2018-10-21T14:55:35.539Z,17.90
2018-10-21T14:58:05.086Z,17.90
2018-10-21T15:00:34.805Z,17.90
2018-10-21T15:03:04.177Z,17.90
2018-10-21T15:05:33.555Z,17.90
2018-10-21T15:08:03.050Z,17.80
2018-10-21T15:10:32.505Z,17.80
2018-10-21T15:13:01.892Z,17.80
2018-10-21T15:15:31.455Z,17.80
2018-10-21T15:18:00.961Z,17.80
2018-10-21T15:20:30.523Z,17.80
2018-10-21T15:23:00.154Z,17.80
2018-10-21T15:25:30.159Z,17.70
2018-10-21T15:27:59.728Z,17.70
2018-10-21T15:30:29.193Z,17.70
2018-10-21T15:32:58.608Z,17.70
2018-10-21T15:35:28.106Z,17.70
2018-10-21T15:37:57.654Z,17.60
2018-10-21T15:40:27.128Z,17.60
2018-10-21T15:42:56.509Z,17.60
2018-10-21T15:45:25.898Z,17.60
2018-10-21T15:47:55.279Z,17.60
2018-10-21T15:50:24.852Z,17.50
2018-10-21T15:52:54.299Z,17.50
2018-10-21T15:55:23.761Z,17.50
2018-10-21T15:57:53.207Z,17.50
2018-10-21T16:00:22.780Z,17.40
2018-10-21T16:02:52.258Z,17.40
2018-10-21T16:05:22.281Z,17.40
2018-10-21T16:07:51.886Z,17.40
2018-10-21T16:10:21.342Z,17.30
2018-10-21T16:12:50.820Z,17.30
2018-10-21T16:15:20.461Z,17.30
2018-10-21T16:17:49.856Z,17.20
2018-10-21T16:20:19.326Z,17.20
2018-10-21T16:22:49.495Z,17.10
2018-10-21T16:25:19.082Z,17.10
2018-10-21T16:27:48.680Z,17.00
2018-10-21T16:30:18.163Z,17.00
2018-10-21T16:32:48.112Z,16.90
2018-10-21T16:35:17.359Z,16.90
2018-10-21T16:37:46.849Z,16.80
2018-10-21T16:40:17.233Z,16.80
2018-10-21T16:42:47.455Z,16.70
2018-10-21T16:45:17.683Z,16.70
2018-10-21T16:47:47.232Z,16.70
2018-10-21T16:50:17.403Z,16.70
2018-10-21T16:52:47.452Z,16.60
2018-10-21T16:55:17.681Z,16.60
2018-10-21T16:57:47.213Z,16.60
2018-10-21T17:00:18.181Z,16.60
2018-10-21T17:02:48.614Z,16.50
2018-10-21T17:05:18.697Z,16.50
2018-10-21T17:07:48.230Z,16.40
2018-10-21T17:10:18.716Z,16.30
2018-10-21T17:12:47.737Z,16.30
2018-10-21T17:15:17.281Z,16.20
2018-10-21T17:17:46.823Z,16.10
2018-10-21T17:20:17.001Z,16.10
2018-10-21T17:22:46.847Z,16.00
2018-10-21T17:25:17.133Z,16.00
2018-10-21T17:27:46.527Z,16.00
2018-10-21T17:30:17.453Z,15.90
2018-10-21T17:32:47.965Z,15.90
2018-10-21T17:35:17.405Z,15.80
2018-10-21T17:37:47.685Z,15.80
2018-10-21T17:40:17.300Z,15.70
2018-10-21T17:42:46.579Z,15.70
2018-10-21T17:45:16.397Z,15.60
2018-10-21T17:47:45.879Z,15.60
2018-10-21T17:50:15.837Z,15.60
2018-10-21T17:52:45.363Z,15.60
2018-10-21T17:55:15.238Z,15.60
2018-10-21T17:57:44.545Z,15.60
2018-10-21T18:00:15.430Z,15.50
2018-10-21T18:02:45.347Z,15.50
2018-10-21T18:05:15.558Z,15.50
2018-10-21T18:07:45.184Z,15.50
2018-10-21T18:10:14.810Z,15.50
2018-10-21T18:12:44.371Z,15.40
2018-10-21T18:15:14.766Z,15.40
2018-10-21T18:17:44.424Z,15.40
2018-10-21T18:20:14.520Z,15.30
2018-10-21T18:22:43.958Z,15.30
2018-10-21T18:25:13.452Z,15.30
2018-10-21T18:27:43.076Z,15.20
2018-10-21T18:30:13.525Z,15.20
2018-10-21T18:32:43.142Z,15.20
2018-10-21T18:35:14.466Z,15.20
2018-10-21T18:37:44.134Z,15.10
2018-10-21T18:40:13.820Z,15.00
2018-10-21T18:42:43.634Z,15.00
2018-10-21T18:45:14.433Z,14.90
2018-10-21T18:47:44.649Z,14.80
2018-10-21T18:50:15.478Z,14.80
2018-10-21T18:52:45.317Z,14.80
2018-10-21T18:55:15.014Z,14.80
2018-10-21T18:57:44.437Z,14.80
2018-10-21T19:00:17.659Z,14.80
2018-10-21T19:02:47.234Z,14.70
2018-10-21T19:05:16.953Z,14.70
2018-10-21T19:07:46.715Z,14.70
2018-10-21T19:10:16.648Z,14.70
2018-10-21T19:12:59.568Z,14.60
2018-10-21T19:15:15.568Z,14.60
2018-10-21T19:17:44.957Z,14.60
2018-10-21T19:20:15.803Z,14.60
2018-10-21T19:22:45.411Z,14.50
2018-10-21T19:25:16.102Z,14.50
2018-10-21T19:27:46.346Z,14.50
2018-10-21T19:30:16.277Z,14.40
2018-10-21T19:32:45.748Z,14.40
2018-10-21T19:35:16.094Z,14.40
2018-10-21T19:37:45.539Z,14.40
2018-10-21T19:40:16.718Z,14.40
2018-10-21T19:42:46.373Z,14.30
2018-10-21T19:45:16.170Z,14.30
2018-10-21T19:47:45.567Z,14.30
2018-10-21T19:50:16.136Z,14.30
2018-10-21T19:52:45.907Z,14.20
2018-10-21T19:55:15.417Z,14.20
2018-10-21T19:57:44.796Z,14.20
2018-10-21T20:00:15.589Z,14.10
2018-10-21T20:02:45.567Z,14.10
2018-10-21T20:05:15.405Z,14.10
2018-10-21T20:07:44.785Z,14.10
2018-10-21T20:10:15.390Z,14.10
2018-10-21T20:12:45.850Z,14.00
2018-10-21T20:15:15.250Z,14.00
2018-10-21T20:17:44.883Z,14.00
2018-10-21T20:20:14.282Z,14.00
2018-10-21T20:22:43.796Z,13.90
2018-10-21T20:25:14.044Z,13.90
2018-10-21T20:27:43.435Z,13.90
2018-10-21T20:30:13.878Z,13.90
2018-10-21T20:32:43.764Z,13.90
2018-10-21T20:35:13.375Z,13.80
2018-10-21T20:37:42.840Z,13.80
2018-10-21T20:40:12.497Z,13.80
2018-10-21T20:42:41.897Z,13.70
2018-10-21T20:45:12.676Z,13.70
2018-10-21T20:47:42.133Z,13.70
2018-10-21T20:50:11.570Z,13.70
2018-10-21T20:52:41.050Z,13.60
2018-10-21T20:55:10.582Z,13.60
2018-10-21T20:57:40.031Z,13.60
2018-10-21T21:00:09.478Z,13.60
2018-10-21T21:02:38.873Z,13.60
2018-10-21T21:05:09.789Z,13.50
2018-10-21T21:07:39.255Z,13.50
2018-10-21T21:10:09.551Z,13.50
2018-10-21T21:12:39.211Z,13.50
2018-10-21T21:15:09.038Z,13.40
2018-10-21T21:17:38.572Z,13.40
2018-10-21T21:20:09.026Z,13.40
2018-10-21T21:22:38.454Z,13.40
2018-10-21T21:25:07.939Z,13.40
2018-10-21T21:27:37.539Z,13.40
2018-10-21T21:30:07.895Z,13.30
2018-10-21T21:32:37.283Z,13.30
2018-10-21T21:35:08.304Z,13.30
2018-10-21T21:37:38.281Z,13.30
2018-10-21T21:40:09.588Z,13.30
2018-10-21T21:42:39.775Z,13.20
2018-10-21T21:45:09.876Z,13.20
2018-10-21T21:47:39.381Z,13.20
2018-10-21T21:50:09.192Z,13.10
2018-10-21T21:52:38.715Z,13.10
2018-10-21T21:55:08.972Z,13.10
2018-10-21T21:57:38.414Z,13.10
2018-10-21T22:00:12.478Z,13.10
2018-10-21T22:02:42.163Z,13.10
2018-10-21T22:05:11.583Z,13.10
2018-10-21T22:07:41.591Z,13.00
2018-10-21T22:10:12.980Z,13.00
2018-10-21T22:12:43.288Z,13.00
2018-10-21T22:15:13.076Z,13.00
2018-10-21T22:17:42.785Z,13.00
2018-10-21T22:20:13.333Z,13.00
2018-10-21T22:22:43.179Z,13.00
2018-10-21T22:25:13.157Z,12.90
2018-10-21T22:27:42.668Z,12.90
2018-10-21T22:30:12.493Z,12.90
2018-10-21T22:32:41.812Z,12.90
2018-10-21T22:35:11.293Z,12.90
2018-10-21T22:37:40.682Z,12.80
2018-10-21T22:40:10.276Z,12.80
2018-10-21T22:42:39.584Z,12.80
2018-10-21T22:45:10.065Z,12.80
2018-10-21T22:47:39.704Z,12.80
2018-10-21T22:50:11.259Z,12.80
2018-10-21T22:52:41.368Z,12.80
2018-10-21T22:55:10.979Z,12.80
2018-10-21T22:57:40.468Z,12.70
2018-10-21T23:00:10.788Z,12.70
2018-10-21T23:02:40.200Z,12.70
2018-10-21T23:05:10.053Z,12.70
2018-10-21T23:07:39.736Z,12.70
2018-10-21T23:10:09.154Z,12.70
2018-10-21T23:12:39.151Z,12.70
2018-10-21T23:15:08.526Z,12.70
2018-10-21T23:17:38.336Z,12.70
2018-10-21T23:20:08.520Z,12.70
2018-10-21T23:22:37.914Z,12.60
2018-10-21T23:25:07.827Z,12.60
2018-10-21T23:27:37.279Z,12.60
2018-10-21T23:30:07.694Z,12.50
2018-10-21T23:32:37.152Z,12.50
2018-10-21T23:35:07.402Z,12.50
2018-10-21T23:37:36.858Z,12.50
2018-10-21T23:40:07.543Z,12.40
2018-10-21T23:42:36.861Z,12.40
2018-10-21T23:45:06.622Z,12.30
2018-10-21T23:47:36.157Z,12.30
2018-10-21T23:50:05.976Z,12.30
2018-10-21T23:52:35.493Z,12.30
2018-10-21T23:55:04.988Z,12.30
2018-10-21T23:57:34.334Z,12.20
